createdAt,value
2022-08-26T00:01:55.842Z,84.49
2022-08-26T00:04:25.623Z,85.25
2022-08-26T00:06:54.758Z,85.72
2022-08-26T00:09:24.802Z,86.74
2022-08-26T00:11:53.997Z,87.73
2022-08-26T00:14:22.881Z,87.83
2022-08-26T00:16:51.603Z,87.62
2022-08-26T00:19:21.322Z,87.30
2022-08-26T00:21:49.606Z,86.61
2022-08-26T00:24:18.864Z,86.37
2022-08-26T00:26:45.801Z,86.13
2022-08-26T00:29:13.606Z,85.89
2022-08-26T00:31:42.040Z,86.15
2022-08-26T00:34:11.221Z,87.35
2022-08-26T00:36:40.779Z,87.82
2022-08-26T00:39:08.412Z,88.40
2022-08-26T00:41:38.485Z,88.75
2022-08-26T00:44:06.397Z,88.89
2022-08-26T00:46:38.594Z,88.95
2022-08-26T00:49:25.984Z,88.65
2022-08-26T00:51:59.106Z,88.92
2022-08-26T00:54:31.150Z,88.54
2022-08-26T00:57:16.349Z,88.73
2022-08-26T00:59:53.214Z,88.91
2022-08-26T01:02:21.054Z,89.44
2022-08-26T01:04:55.646Z,89.66
2022-08-26T01:07:30.325Z,89.83
2022-08-26T01:10:01.286Z,89.88
2022-08-26T01:12:32.476Z,89.54
2022-08-26T01:15:00.412Z,89.23
2022-08-26T01:17:27.209Z,89.54
2022-08-26T01:20:28.214Z,89.40
2022-08-26T01:23:08.698Z,88.71
2022-08-26T01:25:51.112Z,88.21
2022-08-26T01:28:30.429Z,88.79
2022-08-26T01:30:59.645Z,89.61
2022-08-26T01:33:41.987Z,89.67
2022-08-26T01:36:10.159Z,89.66
2022-08-26T01:38:36.912Z,89.63
2022-08-26T01:41:04.498Z,90.12
2022-08-26T01:43:51.387Z,90.26
2022-08-26T01:46:20.621Z,89.42
2022-08-26T01:48:49.682Z,89.13
2022-08-26T01:51:22.872Z,89.61
2022-08-26T01:53:49.944Z,90.34
2022-08-26T01:56:17.512Z,90.63
2022-08-26T01:58:58.929Z,90.49
2022-08-26T02:01:29.062Z,90.08
2022-08-26T02:04:10.909Z,90.12
2022-08-26T02:06:41.162Z,90.57
2022-08-26T02:09:08.583Z,90.52
2022-08-26T02:11:36.838Z,90.55
2022-08-26T02:14:16.211Z,90.64
2022-08-26T02:16:47.533Z,91.01
2022-08-26T02:19:19.663Z,90.36
2022-08-26T02:21:51.183Z,89.97
2022-08-26T02:24:27.586Z,89.59
2022-08-26T02:26:57.110Z,89.32
2022-08-26T02:29:38.473Z,88.88
2022-08-26T02:32:08.629Z,89.68
2022-08-26T02:34:36.167Z,90.12
2022-08-26T02:37:08.276Z,89.90
2022-08-26T02:39:40.705Z,89.53
2022-08-26T02:42:07.909Z,88.87
2022-08-26T02:44:34.815Z,89.40
2022-08-26T02:47:02.005Z,89.36
2022-08-26T02:49:30.518Z,88.75
2022-08-26T02:51:58.013Z,88.60
2022-08-26T02:54:28.965Z,88.48
2022-08-26T02:56:56.404Z,88.47
2022-08-26T02:59:24.673Z,89.38
2022-08-26T03:01:52.495Z,90.09
2022-08-26T03:04:25.695Z,90.40
2022-08-26T03:06:53.552Z,90.16
2022-08-26T03:09:23.637Z,89.90
2022-08-26T03:11:52.035Z,89.94
2022-08-26T03:14:18.912Z,90.15
2022-08-26T03:16:48.622Z,89.70
2022-08-26T03:19:15.556Z,89.53
2022-08-26T03:21:45.225Z,89.63
2022-08-26T03:24:15.248Z,89.59
2022-08-26T03:26:52.062Z,88.85
2022-08-26T03:29:40.052Z,88.12
2022-08-26T03:32:07.666Z,87.76
2022-08-26T03:34:35.467Z,87.60
2022-08-26T03:37:02.448Z,87.32
2022-08-26T03:39:31.418Z,87.93
2022-08-26T03:41:59.027Z,87.87
2022-08-26T03:44:26.802Z,87.92
2022-08-26T03:46:55.003Z,88.53
2022-08-26T03:49:22.542Z,89.17
2022-08-26T03:51:50.394Z,89.33
2022-08-26T03:54:17.898Z,89.11
2022-08-26T03:56:46.626Z,88.86
2022-08-26T03:59:13.951Z,89.10
2022-08-26T04:01:41.025Z,89.71
2022-08-26T04:04:09.358Z,89.85
2022-08-26T04:06:44.961Z,89.87
2022-08-26T04:09:20.169Z,90.25
2022-08-26T04:11:50.504Z,90.19
2022-08-26T04:14:22.557Z,89.84
2022-08-26T04:16:50.941Z,89.88
2022-08-26T04:19:19.339Z,89.32
2022-08-26T04:21:48.118Z,88.76
2022-08-26T04:24:17.649Z,88.66
2022-08-26T04:26:44.793Z,88.37
2022-08-26T04:29:25.462Z,89.00
2022-08-26T04:31:57.364Z,89.50
2022-08-26T04:34:27.237Z,89.82
2022-08-26T04:36:56.159Z,89.57
2022-08-26T04:39:22.968Z,89.15
2022-08-26T04:41:50.757Z,88.76
2022-08-26T04:44:18.730Z,89.10
2022-08-26T04:46:45.532Z,89.11
2022-08-26T04:49:13.542Z,89.44
2022-08-26T04:51:40.635Z,90.05
2022-08-26T04:54:08.730Z,90.17
2022-08-26T04:56:39.177Z,90.32
2022-08-26T04:59:17.160Z,90.43
2022-08-26T05:01:51.368Z,90.74
2022-08-26T05:04:20.274Z,90.67
2022-08-26T05:06:48.451Z,90.73
2022-08-26T05:09:16.554Z,91.06
2022-08-26T05:11:43.403Z,91.06
2022-08-26T05:14:10.290Z,90.70
2022-08-26T05:16:40.372Z,91.54
2022-08-26T05:19:08.548Z,91.87
2022-08-26T05:21:36.690Z,91.25
2022-08-26T05:24:04.738Z,91.33
2022-08-26T05:26:32.472Z,91.66
2022-08-26T05:28:59.442Z,91.68
2022-08-26T05:31:31.519Z,91.18
2022-08-26T05:34:03.588Z,90.08
2022-08-26T05:36:33.561Z,89.90
2022-08-26T05:39:03.976Z,90.02
2022-08-26T05:41:36.777Z,90.18
2022-08-26T05:44:09.459Z,89.98
2022-08-26T05:46:37.469Z,90.43
2022-08-26T05:49:12.808Z,90.48
2022-08-26T05:51:42.111Z,90.57
2022-08-26T05:54:10.379Z,90.94
2022-08-26T05:56:39.150Z,90.82
2022-08-26T05:59:14.445Z,90.60
2022-08-26T06:01:43.629Z,90.34
2022-08-26T06:04:11.525Z,90.58
2022-08-26T06:06:41.763Z,90.44
2022-08-26T06:09:10.975Z,90.39
2022-08-26T06:11:38.994Z,89.96
2022-08-26T06:14:08.027Z,89.73
2022-08-26T06:16:40.946Z,89.83
2022-08-26T06:19:10.708Z,89.97
2022-08-26T06:21:41.559Z,89.74
2022-08-26T06:24:32.813Z,90.23
2022-08-26T06:27:05.728Z,91.09
2022-08-26T06:29:36.059Z,91.07
2022-08-26T06:32:04.767Z,91.29
2022-08-26T06:34:31.675Z,90.75
2022-08-26T06:37:02.786Z,91.18
2022-08-26T06:39:31.470Z,91.74
2022-08-26T06:42:00.142Z,91.80
2022-08-26T06:44:27.544Z,91.87
2022-08-26T06:46:54.845Z,91.57
2022-08-26T06:49:25.830Z,92.37
2022-08-26T06:51:54.339Z,93.39
2022-08-26T06:54:21.387Z,92.36
2022-08-26T06:56:48.188Z,91.87
2022-08-26T06:59:15.453Z,91.30
2022-08-26T07:01:44.987Z,91.01
2022-08-26T07:04:15.684Z,90.85
2022-08-26T07:06:49.114Z,90.64
2022-08-26T07:09:16.952Z,91.00
2022-08-26T07:11:45.007Z,90.89
2022-08-26T07:14:12.707Z,91.07
2022-08-26T07:16:41.317Z,91.55
2022-08-26T07:19:10.863Z,91.37
2022-08-26T07:21:41.645Z,91.31
2022-08-26T07:24:10.995Z,90.50
2022-08-26T07:26:39.282Z,89.89
2022-08-26T07:29:11.577Z,89.37
2022-08-26T07:31:39.482Z,88.34
2022-08-26T07:34:10.663Z,87.20
2022-08-26T07:36:37.457Z,87.21
2022-08-26T07:39:04.341Z,86.71
2022-08-26T07:41:31.298Z,85.44
2022-08-26T07:43:58.794Z,84.76
2022-08-26T07:46:27.059Z,83.75
2022-08-26T07:48:57.593Z,83.04
2022-08-26T07:51:25.054Z,83.09
2022-08-26T07:53:53.074Z,83.15
2022-08-26T07:56:21.849Z,82.28
2022-08-26T07:58:51.439Z,81.42
2022-08-26T08:01:23.778Z,80.73
2022-08-26T08:03:52.182Z,80.29
2022-08-26T08:06:27.302Z,77.77
2022-08-26T08:08:55.883Z,76.94
2022-08-26T08:11:24.140Z,74.96
2022-08-26T08:13:56.036Z,73.16
2022-08-26T08:16:32.109Z,70.50
2022-08-26T08:19:00.253Z,69.51
2022-08-26T08:21:28.983Z,69.96
2022-08-26T08:23:57.445Z,69.05
2022-08-26T08:26:26.189Z,65.00
2022-08-26T08:28:57.616Z,64.61
2022-08-26T08:31:56.997Z,64.54
2022-08-26T08:34:19.326Z,60.62
2022-08-26T08:36:48.992Z,60.05
2022-08-26T08:39:17.493Z,59.42
2022-08-26T08:42:27.907Z,61.25
2022-08-26T08:45:00.127Z,57.74
2022-08-26T08:47:36.602Z,55.60
2022-08-26T08:50:21.314Z,51.74
2022-08-26T08:53:20.502Z,54.89
2022-08-26T08:56:11.251Z,54.47
2022-08-26T08:59:26.754Z,51.65
2022-08-26T09:02:20.956Z,47.70
2022-08-26T09:05:15.233Z,48.81
2022-08-26T09:08:19.870Z,45.40
2022-08-26T09:10:59.688Z,45.54
2022-08-26T09:13:27.632Z,46.77
2022-08-26T09:16:11.250Z,48.79
2022-08-26T09:19:02.069Z,49.00
2022-08-26T09:21:31.491Z,49.67
2022-08-26T09:23:58.468Z,49.50
2022-08-26T09:26:39.279Z,48.35
2022-08-26T09:29:15.613Z,49.05
2022-08-26T09:31:42.686Z,48.39
2022-08-26T09:34:27.082Z,49.25
2022-08-26T09:36:54.912Z,48.27
2022-08-26T09:39:26.013Z,48.29
2022-08-26T09:42:05.371Z,48.02
2022-08-26T09:44:33.066Z,47.23
2022-08-26T09:47:05.475Z,46.76
2022-08-26T09:49:37.246Z,46.83
2022-08-26T09:52:08.221Z,47.76
2022-08-26T09:54:35.955Z,46.49
2022-08-26T09:57:26.390Z,46.79
2022-08-26T09:59:54.097Z,46.18
2022-08-26T10:02:33.228Z,47.10
2022-08-26T10:05:09.531Z,44.28
2022-08-26T10:07:41.500Z,44.59
2022-08-26T10:10:15.129Z,45.70
2022-08-26T10:12:55.313Z,45.25
2022-08-26T10:15:25.412Z,44.90
2022-08-26T10:18:16.627Z,45.25
2022-08-26T10:21:15.096Z,43.98
2022-08-26T10:23:56.910Z,43.31
2022-08-26T10:26:57.641Z,41.38
2022-08-26T10:29:39.631Z,42.55
2022-08-26T10:32:16.865Z,43.37
2022-08-26T10:34:44.086Z,41.84
2022-08-26T10:37:20.588Z,41.38
2022-08-26T10:40:04.180Z,40.10
2022-08-26T10:42:37.786Z,40.31
2022-08-26T10:45:15.593Z,40.09
2022-08-26T10:47:54.936Z,39.05
2022-08-26T10:50:28.421Z,38.87
2022-08-26T10:53:19.262Z,38.94
2022-08-26T10:56:15.825Z,38.72
2022-08-26T10:58:59.625Z,39.84
2022-08-26T11:01:47.079Z,41.10
2022-08-26T11:04:45.645Z,41.46
2022-08-26T11:07:40.543Z,40.46
2022-08-26T11:10:22.668Z,39.55
2022-08-26T11:13:04.981Z,41.66
2022-08-26T11:15:31.721Z,39.87
2022-08-26T11:18:04.489Z,39.88
2022-08-26T11:20:46.251Z,40.67
2022-08-26T11:23:14.456Z,40.98
2022-08-26T11:25:57.159Z,40.94
2022-08-26T11:28:50.335Z,40.94
2022-08-26T11:31:26.158Z,40.62
2022-08-26T11:34:02.546Z,40.81
2022-08-26T11:36:47.863Z,41.14
2022-08-26T11:39:30.717Z,41.49
2022-08-26T11:42:32.072Z,40.52
2022-08-26T11:45:01.384Z,41.16
2022-08-26T11:47:32.249Z,40.17
2022-08-26T11:50:18.157Z,40.65
2022-08-26T11:53:06.100Z,40.66
2022-08-26T11:55:36.392Z,41.03
2022-08-26T11:58:05.849Z,41.44
2022-08-26T12:00:37.759Z,41.03
2022-08-26T12:03:08.324Z,39.80
2022-08-26T12:05:43.572Z,41.03
2022-08-26T12:08:17.653Z,40.26
2022-08-26T12:10:44.837Z,41.18
2022-08-26T12:13:26.413Z,41.91
2022-08-26T12:15:57.162Z,42.55
2022-08-26T12:18:31.620Z,43.73
2022-08-26T12:21:01.952Z,43.84
2022-08-26T12:23:41.058Z,44.43
2022-08-26T12:26:30.949Z,45.88
2022-08-26T12:29:10.770Z,45.56
2022-08-26T12:31:48.113Z,45.53
2022-08-26T12:34:18.237Z,45.68
2022-08-26T12:39:36.612Z,45.83
2022-08-26T12:42:40.775Z,43.84
2022-08-26T12:45:08.640Z,43.22
2022-08-26T12:47:43.071Z,42.33
2022-08-26T12:50:19.333Z,44.21
2022-08-26T12:53:01.342Z,45.67
2022-08-26T12:55:43.025Z,43.92
2022-08-26T12:58:39.151Z,43.31
2022-08-26T13:01:08.905Z,44.67
2022-08-26T13:03:38.769Z,44.10
2022-08-26T13:06:35.048Z,45.05
2022-08-26T13:09:24.962Z,42.97
2022-08-26T13:11:54.385Z,42.44
2022-08-26T13:14:24.695Z,41.89
2022-08-26T13:16:52.852Z,42.13
2022-08-26T13:19:25.525Z,41.66
2022-08-26T13:21:58.100Z,42.23
2022-08-26T13:24:44.479Z,42.31
2022-08-26T13:27:14.461Z,41.76
2022-08-26T13:29:41.798Z,42.02
2022-08-26T13:32:09.673Z,42.43
2022-08-26T13:34:38.374Z,42.61
2022-08-26T13:37:05.781Z,43.25
2022-08-26T13:39:33.215Z,43.27
2022-08-26T13:42:00.319Z,44.61
2022-08-26T13:44:27.513Z,45.57
2022-08-26T13:46:54.713Z,46.53
2022-08-26T13:49:22.292Z,46.09
2022-08-26T13:51:49.134Z,44.46
2022-08-26T13:54:15.976Z,46.09
2022-08-26T13:56:42.954Z,45.72
2022-08-26T13:59:10.748Z,45.05
2022-08-26T14:01:40.190Z,46.07
2022-08-26T14:04:08.469Z,45.05
2022-08-26T14:06:35.381Z,45.90
2022-08-26T14:09:02.191Z,46.24
2022-08-26T14:11:30.343Z,46.67
2022-08-26T14:14:06.213Z,46.45
2022-08-26T14:16:38.475Z,46.85
2022-08-26T14:19:25.273Z,47.09
2022-08-26T14:21:52.030Z,46.73
2022-08-26T14:24:19.180Z,46.17
2022-08-26T14:26:48.617Z,46.55
2022-08-26T14:29:16.859Z,46.61
2022-08-26T14:31:44.269Z,47.08
2022-08-26T14:34:13.929Z,46.96
2022-08-26T14:36:40.719Z,47.04
2022-08-26T14:39:12.798Z,47.03
2022-08-26T14:41:54.679Z,47.08
2022-08-26T14:44:25.025Z,46.85
2022-08-26T14:46:53.083Z,46.75
2022-08-26T14:49:22.611Z,47.29
2022-08-26T14:51:49.873Z,46.66
2022-08-26T14:54:18.186Z,46.49
2022-08-26T14:56:46.472Z,44.55
2022-08-26T14:59:17.734Z,43.92
2022-08-26T15:01:45.512Z,42.89
2022-08-26T15:04:12.836Z,41.69
2022-08-26T15:06:40.170Z,40.31
2022-08-26T15:09:07.479Z,39.69
2022-08-26T15:11:34.743Z,38.88
2022-08-26T15:14:01.644Z,37.31
2022-08-26T15:16:29.308Z,37.51
2022-08-26T15:18:57.005Z,37.13
2022-08-26T15:21:24.709Z,38.50
2022-08-26T15:23:53.346Z,41.37
2022-08-26T15:26:21.798Z,42.81
2022-08-26T15:28:49.240Z,43.27
2022-08-26T15:31:17.547Z,43.97
2022-08-26T15:33:44.714Z,44.91
2022-08-26T15:36:12.008Z,44.98
2022-08-26T15:38:42.447Z,45.08
2022-08-26T15:41:10.549Z,45.68
2022-08-26T15:43:38.400Z,46.02
2022-08-26T15:46:11.434Z,46.55
2022-08-26T15:48:39.480Z,46.59
2022-08-26T15:51:08.434Z,46.27
2022-08-26T15:53:35.566Z,46.49
2022-08-26T15:56:02.702Z,46.66
2022-08-26T15:58:30.117Z,46.90
2022-08-26T16:00:57.550Z,47.19
2022-08-26T16:03:25.697Z,47.28
2022-08-26T16:05:52.638Z,49.32
2022-08-26T16:08:20.282Z,50.14
2022-08-26T16:10:50.594Z,50.15
2022-08-26T16:13:20.205Z,51.18
2022-08-26T16:15:48.395Z,52.06
2022-08-26T16:18:16.241Z,53.81
2022-08-26T16:21:05.021Z,52.88
2022-08-26T16:23:40.116Z,54.10
2022-08-26T16:26:12.922Z,54.06
2022-08-26T16:28:40.084Z,52.95
2022-08-26T16:31:07.546Z,52.81
2022-08-26T16:33:34.407Z,52.57
2022-08-26T16:36:01.213Z,53.18
2022-08-26T16:38:28.117Z,53.01
2022-08-26T16:40:54.871Z,52.73
2022-08-26T16:43:24.488Z,54.23
2022-08-26T16:45:51.335Z,54.65
2022-08-26T16:48:18.237Z,54.19
2022-08-26T16:50:45.146Z,54.46
2022-08-26T16:55:59.417Z,56.62
2022-08-26T16:58:26.169Z,57.23
2022-08-26T17:00:52.962Z,54.51
2022-08-26T17:03:19.815Z,53.66
2022-08-26T17:05:46.635Z,52.49
2022-08-26T17:08:28.320Z,51.42
2022-08-26T17:10:56.328Z,50.40
2022-08-26T17:13:34.772Z,49.56
2022-08-26T17:16:05.070Z,49.31
2022-08-26T17:18:33.493Z,49.41
2022-08-26T17:21:04.638Z,49.95
2022-08-26T17:23:31.497Z,49.63
2022-08-26T17:25:58.314Z,50.12
2022-08-26T17:28:25.108Z,49.90
2022-08-26T17:30:51.945Z,50.11
2022-08-26T17:33:22.077Z,50.47
2022-08-26T17:35:51.696Z,50.60
2022-08-26T17:38:18.568Z,51.11
2022-08-26T17:40:45.396Z,51.22
2022-08-26T17:43:12.642Z,51.18
2022-08-26T17:45:40.440Z,51.87
2022-08-26T17:48:08.153Z,52.28
2022-08-26T17:50:35.406Z,52.25
2022-08-26T17:53:02.336Z,52.39
2022-08-26T17:55:29.252Z,52.73
2022-08-26T17:57:56.064Z,52.74
2022-08-26T18:00:28.460Z,53.35
2022-08-26T18:02:56.212Z,53.53
2022-08-26T18:05:23.648Z,53.78
2022-08-26T18:07:51.520Z,53.89
2022-08-26T18:10:20.553Z,54.26
2022-08-26T18:12:47.486Z,54.26
2022-08-26T18:15:18.515Z,54.72
2022-08-26T18:17:46.030Z,55.53
2022-08-26T18:20:18.843Z,55.69
2022-08-26T18:22:47.643Z,55.98
2022-08-26T18:25:16.669Z,56.48
2022-08-26T18:27:43.801Z,56.91
2022-08-26T18:30:16.981Z,56.82
2022-08-26T18:32:44.598Z,57.73
2022-08-26T18:35:12.005Z,57.86
2022-08-26T18:37:39.228Z,57.81
2022-08-26T18:40:10.008Z,58.32
2022-08-26T18:42:37.619Z,58.46
2022-08-26T18:45:07.699Z,60.19
2022-08-26T18:47:36.047Z,60.13
2022-08-26T18:50:04.622Z,60.74
2022-08-26T18:52:33.255Z,61.08
2022-08-26T18:55:03.355Z,61.38
2022-08-26T18:57:30.365Z,61.82
2022-08-26T18:59:57.931Z,62.33
2022-08-26T19:02:28.694Z,62.42
2022-08-26T19:04:58.167Z,62.62
2022-08-26T19:07:25.899Z,63.07
2022-08-26T19:09:58.755Z,63.45
2022-08-26T19:12:27.859Z,64.04
2022-08-26T19:14:54.700Z,64.02
2022-08-26T19:17:22.691Z,64.59
2022-08-26T19:19:49.978Z,64.76
2022-08-26T19:22:16.827Z,64.70
2022-08-26T19:24:44.314Z,64.55
2022-08-26T19:27:14.773Z,65.06
2022-08-26T19:29:42.896Z,65.02
2022-08-26T19:32:09.821Z,65.07
2022-08-26T19:34:36.704Z,65.67
2022-08-26T19:37:03.557Z,65.24
2022-08-26T19:39:30.942Z,64.97
2022-08-26T19:41:57.845Z,65.70
2022-08-26T19:44:44.133Z,65.60
2022-08-26T19:47:15.268Z,65.25
2022-08-26T19:49:42.217Z,64.73
2022-08-26T19:52:11.047Z,64.90
2022-08-26T19:54:38.789Z,64.51
2022-08-26T19:57:06.009Z,64.08
2022-08-26T19:59:33.218Z,63.54
2022-08-26T20:02:01.109Z,63.75
2022-08-26T20:04:30.105Z,63.61
2022-08-26T20:06:58.841Z,63.63
2022-08-26T20:09:32.716Z,64.50
2022-08-26T20:12:00.950Z,65.47
2022-08-26T20:14:29.919Z,65.28
2022-08-26T20:16:57.019Z,67.09
2022-08-26T20:19:42.624Z,67.08
2022-08-26T20:22:09.944Z,67.92
2022-08-26T20:24:37.406Z,68.10
2022-08-26T20:27:07.799Z,68.09
2022-08-26T20:29:35.833Z,68.13
2022-08-26T20:32:03.703Z,68.40
2022-08-26T20:34:30.586Z,68.56
2022-08-26T20:36:57.581Z,69.49
2022-08-26T20:39:24.365Z,70.02
2022-08-26T20:41:51.454Z,69.54
2022-08-26T20:44:27.606Z,69.85
2022-08-26T20:46:55.330Z,69.66
2022-08-26T20:49:22.783Z,70.28
2022-08-26T20:51:53.118Z,70.89
2022-08-26T20:54:25.123Z,71.37
2022-08-26T20:56:57.537Z,71.78
2022-08-26T20:59:25.177Z,71.86
2022-08-26T21:01:52.594Z,72.06
2022-08-26T21:04:23.645Z,71.97
2022-08-26T21:06:52.790Z,72.62
2022-08-26T21:09:22.632Z,73.00
2022-08-26T21:11:50.737Z,73.01
2022-08-26T21:14:20.607Z,73.05
2022-08-26T21:16:47.894Z,73.39
2022-08-26T21:19:18.181Z,73.56
2022-08-26T21:21:47.441Z,73.44
2022-08-26T21:24:14.942Z,73.44
2022-08-26T21:26:42.024Z,73.91
2022-08-26T21:29:10.030Z,74.42
2022-08-26T21:31:42.274Z,74.19
2022-08-26T21:34:11.981Z,74.15
2022-08-26T21:36:38.762Z,75.81
2022-08-26T21:39:10.737Z,76.50
2022-08-26T21:41:39.257Z,76.26
2022-08-26T21:44:06.126Z,76.71
2022-08-26T21:46:36.408Z,76.51
2022-08-26T21:49:07.530Z,75.75
2022-08-26T21:51:48.316Z,75.64
2022-08-26T21:54:15.482Z,75.53
2022-08-26T21:56:46.782Z,74.97
2022-08-26T21:59:18.643Z,74.69
2022-08-26T22:01:46.161Z,75.88
2022-08-26T22:04:13.337Z,76.09
2022-08-26T22:06:48.221Z,75.60
2022-08-26T22:09:20.749Z,74.36
2022-08-26T22:11:47.854Z,75.31
2022-08-26T22:14:16.423Z,74.72
2022-08-26T22:16:50.120Z,75.26
2022-08-26T22:19:18.102Z,75.34
2022-08-26T22:21:45.366Z,75.10
2022-08-26T22:24:12.562Z,75.79
2022-08-26T22:26:40.471Z,75.67
2022-08-26T22:29:07.746Z,75.64
2022-08-26T22:31:37.121Z,75.77
2022-08-26T22:34:13.114Z,75.56
2022-08-26T22:36:44.375Z,75.85
2022-08-26T22:39:15.226Z,75.98
2022-08-26T22:41:44.195Z,75.85
2022-08-26T22:44:12.192Z,76.02
2022-08-26T22:46:40.725Z,76.17
2022-08-26T22:49:11.039Z,76.46
2022-08-26T22:51:38.064Z,76.63
2022-08-26T22:54:05.932Z,76.26
2022-08-26T22:56:32.912Z,76.69
2022-08-26T22:58:59.721Z,77.03
2022-08-26T23:01:26.842Z,77.59
2022-08-26T23:03:53.689Z,77.34
2022-08-26T23:06:20.557Z,77.34
2022-08-26T23:08:47.563Z,78.16
2022-08-26T23:11:15.061Z,78.08
2022-08-26T23:13:42.686Z,78.79
2022-08-26T23:16:12.319Z,78.60
2022-08-26T23:18:41.088Z,78.45
2022-08-26T23:21:08.983Z,78.24
2022-08-26T23:23:36.421Z,78.39
2022-08-26T23:26:06.112Z,78.70
2022-08-26T23:28:33.784Z,79.56
2022-08-26T23:31:00.692Z,79.57
2022-08-26T23:33:47.482Z,79.82
2022-08-26T23:36:18.190Z,79.69
2022-08-26T23:38:52.844Z,79.63
2022-08-26T23:41:22.228Z,79.63
2022-08-26T23:43:50.337Z,80.21
2022-08-26T23:46:18.076Z,80.78
2022-08-26T23:48:44.966Z,81.22
2022-08-26T23:51:30.914Z,81.57
2022-08-26T23:53:58.077Z,81.15
2022-08-26T23:56:25.441Z,81.67
2022-08-26T23:58:53.985Z,81.68
